Time;durP1;ratioP1;P1;durP2;ratioP2;P2;SDS_P1;SDS_P2;PMS_P1;PMS_P2;Temp;Humidity;BMP_temperature;BMP_pressure;BME280_temperature;BME280_humidity;BME280_pressure;Samples;Min_cycle;Max_cycle;Signal;HPM_P1;HPM_P2
2021/03/15 00:00:43;;;;;;;14.05;5.80;;;7.50;99.90;;;;;;2080982;28;20049;-79
2021/03/15 00:01:44;;;;;;;11.70;4.93;;;7.50;99.90;;;;;;2080552;28;20026;-79
2021/03/15 00:02:45;;;;;;;10.60;4.97;;;7.50;99.90;;;;;;2070626;28;20113;-80
2021/03/15 00:03:46;;;;;;;7.45;4.93;;;7.50;99.90;;;;;;2064312;28;20050;-79
2021/03/15 00:04:46;;;;;;;9.43;5.22;;;7.50;99.90;;;;;;2073477;28;20084;-80
2021/03/15 00:05:47;;;;;;;12.80;5.03;;;7.50;99.90;;;;;;2067847;28;20014;-79
2021/03/15 00:06:47;;;;;;;11.98;5.00;;;7.50;99.90;;;;;;2080647;28;20383;-78
2021/03/15 00:07:48;;;;;;;8.40;4.95;;;7.50;99.90;;;;;;2086299;28;20033;-78
2021/03/15 00:08:49;;;;;;;7.68;4.78;;;7.50;99.90;;;;;;2079830;28;20068;-78
2021/03/15 00:09:50;;;;;;;17.65;5.78;;;7.50;99.90;;;;;;2080608;28;20057;-78
2021/03/15 00:10:50;;;;;;;8.15;4.93;;;7.50;99.90;;;;;;2083559;28;20032;-77
2021/03/15 00:11:53;;;;;;;9.25;4.75;;;7.50;99.90;;;;;;2074966;28;20140;-78
2021/03/15 00:12:53;;;;;;;8.40;4.88;;;7.50;99.90;;;;;;2064867;28;20049;-79
2021/03/15 00:13:54;;;;;;;11.30;4.68;;;7.50;99.90;;;;;;2069226;28;20076;-78
2021/03/15 00:14:55;;;;;;;14.38;4.80;;;7.50;99.90;;;;;;2072830;28;20085;-77
2021/03/15 00:15:57;;;;;;;9.07;5.13;;;7.50;99.90;;;;;;2072430;28;20092;-78
2021/03/15 00:16:57;;;;;;;13.77;5.13;;;7.50;99.90;;;;;;2072201;28;20018;-78
2021/03/15 00:17:58;;;;;;;12.65;5.38;;;7.50;99.90;;;;;;2072233;28;20080;-77
2021/03/15 00:19:02;;;;;;;10.20;4.60;;;7.50;99.90;;;;;;2085214;28;20065;-78
2021/03/15 00:20:05;;;;;;;9.73;4.57;;;7.50;99.90;;;;;;2082184;28;20101;-78
2021/03/15 00:21:06;;;;;;;11.05;5.55;;;7.50;99.90;;;;;;2078657;28;20017;-78
2021/03/15 00:22:07;;;;;;;12.30;5.10;;;7.60;99.90;;;;;;2072052;28;20036;-79
2021/03/15 00:23:08;;;;;;;8.50;4.88;;;7.60;99.90;;;;;;2072168;28;20030;-80
2021/03/15 00:24:09;;;;;;;6.95;5.10;;;7.60;99.90;;;;;;2080344;28;20030;-79
2021/03/15 00:25:11;;;;;;;12.68;4.93;;;7.60;99.90;;;;;;2074491;28;20022;-79
2021/03/15 00:26:11;;;;;;;11.43;4.90;;;7.60;99.90;;;;;;2087739;28;20272;-79
2021/03/15 00:27:12;;;;;;;9.30;4.70;;;7.60;99.90;;;;;;2081944;28;20445;-79
2021/03/15 00:28:13;;;;;;;10.15;4.85;;;7.60;99.90;;;;;;2071354;28;20029;-79
2021/03/15 00:29:14;;;;;;;14.65;5.80;;;7.60;99.90;;;;;;2079967;28;20135;-80
2021/03/15 00:30:16;;;;;;;16.13;5.95;;;7.60;99.90;;;;;;2083643;28;20429;-79
2021/03/15 00:31:17;;;;;;;13.15;5.55;;;7.60;99.90;;;;;;2080091;28;20049;-79
2021/03/15 00:32:18;;;;;;;13.73;5.13;;;7.60;99.90;;;;;;2073760;28;20029;-78
2021/03/15 00:33:20;;;;;;;12.75;5.50;;;7.60;99.90;;;;;;2081144;28;20069;-78
2021/03/15 00:34:20;;;;;;;12.95;5.57;;;7.60;99.90;;;;;;2068844;28;20022;-77
2021/03/15 00:35:21;;;;;;;9.00;5.30;;;7.60;99.90;;;;;;2085255;28;20064;-78
2021/03/15 00:36:22;;;;;;;10.23;5.22;;;7.60;99.90;;;;;;2082250;28;20473;-78
2021/03/15 00:37:22;;;;;;;10.77;5.07;;;7.60;99.90;;;;;;2081600;28;20028;-79
2021/03/15 00:38:23;;;;;;;10.13;5.38;;;7.60;99.90;;;;;;2080586;28;20036;-78
2021/03/15 00:39:24;;;;;;;10.80;5.30;;;7.60;99.90;;;;;;2080988;28;20018;-77
2021/03/15 00:40:25;;;;;;;8.27;4.55;;;7.60;99.90;;;;;;2081120;28;20116;-78
2021/03/15 00:41:26;;;;;;;9.77;5.05;;;7.60;99.90;;;;;;2086042;28;20043;-78
2021/03/15 00:42:27;;;;;;;10.93;4.80;;;7.70;99.90;;;;;;2080409;28;20063;-78
2021/03/15 00:43:28;;;;;;;9.98;4.57;;;7.70;99.90;;;;;;2081232;28;20025;-77
2021/03/15 00:44:29;;;;;;;10.57;4.97;;;7.70;99.90;;;;;;2087882;28;20389;-79
2021/03/15 00:45:29;;;;;;;11.35;5.30;;;7.70;99.90;;;;;;2081411;28;20025;-79
2021/03/15 00:46:30;;;;;;;11.98;5.63;;;7.70;99.90;;;;;;2084332;28;20087;-78
2021/03/15 00:47:31;;;;;;;12.43;5.35;;;7.70;99.90;;;;;;2080266;28;20041;-78
2021/03/15 00:48:32;;;;;;;14.10;5.97;;;7.70;99.90;;;;;;2080855;28;20079;-78
2021/03/15 00:49:35;;;;;;;10.90;5.63;;;7.70;99.90;;;;;;2090231;28;20036;-79
2021/03/15 00:50:42;;;;;;;11.68;5.22;;;7.70;99.90;;;;;;2089653;28;20028;-82
2021/03/15 00:51:43;;;;;;;12.10;5.78;;;7.70;99.90;;;;;;2082646;28;20022;-79
2021/03/15 00:52:43;;;;;;;17.33;6.45;;;7.70;99.90;;;;;;2090051;28;20053;-81
2021/03/15 00:53:44;;;;;;;8.10;4.93;;;7.70;99.90;;;;;;2089169;28;20182;-80
2021/03/15 00:54:45;;;;;;;11.98;5.75;;;7.70;99.90;;;;;;2090003;28;20013;-79
2021/03/15 00:55:45;;;;;;;15.32;5.20;;;7.70;99.90;;;;;;2097690;28;20033;-80
2021/03/15 00:56:46;;;;;;;12.35;5.95;;;7.70;99.90;;;;;;2090130;28;20270;-79
2021/03/15 00:57:47;;;;;;;10.00;5.95;;;7.70;99.90;;;;;;2090457;28;20037;-79
2021/03/15 00:58:47;;;;;;;10.77;5.00;;;7.70;99.90;;;;;;2088660;28;20041;-79
2021/03/15 00:59:48;;;;;;;19.02;6.50;;;7.70;99.90;;;;;;2090352;28;20060;-79
2021/03/15 01:00:49;;;;;;;10.88;5.57;;;7.70;99.90;;;;;;2089124;28;20048;-82
2021/03/15 01:01:50;;;;;;;11.20;5.97;;;7.70;99.90;;;;;;2089832;28;20025;-80
2021/03/15 01:02:51;;;;;;;13.75;6.03;;;7.70;99.90;;;;;;2076531;28;20065;-79
2021/03/15 01:03:52;;;;;;;12.40;6.28;;;7.80;99.90;;;;;;2072212;28;20080;-79
2021/03/15 01:04:52;;;;;;;13.45;6.25;;;7.80;99.90;;;;;;2087970;28;20036;-79
2021/03/15 01:05:56;;;;;;;9.35;6.20;;;7.80;99.90;;;;;;2085426;28;20025;-79
2021/03/15 01:06:56;;;;;;;11.85;5.80;;;7.80;99.90;;;;;;2079899;28;20025;-79
2021/03/15 01:07:57;;;;;;;16.73;6.13;;;7.80;99.90;;;;;;2078303;28;20057;-78
2021/03/15 01:08:58;;;;;;;12.82;5.60;;;7.80;99.90;;;;;;2077958;28;20025;-78
2021/03/15 01:09:59;;;;;;;12.80;5.85;;;7.80;99.90;;;;;;2083168;28;20082;-78
2021/03/15 01:10:59;;;;;;;13.88;5.82;;;7.80;99.90;;;;;;2080451;28;20014;-78
2021/03/15 01:12:00;;;;;;;13.80;6.35;;;7.80;99.90;;;;;;2072771;28;20033;-79
2021/03/15 01:13:01;;;;;;;14.38;6.63;;;7.80;99.90;;;;;;2088820;28;20040;-80
2021/03/15 01:14:03;;;;;;;11.85;5.80;;;7.80;99.90;;;;;;2078956;28;20450;-79
2021/03/15 01:15:11;;;;;;;13.05;6.88;;;7.80;99.90;;;;;;2081750;28;20052;-80
2021/03/15 01:16:12;;;;;;;12.68;7.82;;;7.80;99.90;;;;;;2088924;28;20010;-80
2021/03/15 01:17:14;;;;;;;11.63;6.22;;;7.80;99.90;;;;;;2087856;28;20032;-80
2021/03/15 01:18:15;;;;;;;13.00;8.00;;;7.80;99.90;;;;;;2088224;28;20016;-80
2021/03/15 01:19:15;;;;;;;17.55;8.00;;;7.80;99.90;;;;;;2088546;28;20072;-81
2021/03/15 01:20:16;;;;;;;19.50;8.05;;;7.80;99.90;;;;;;2087086;28;20029;-81
2021/03/15 01:21:17;;;;;;;13.68;7.97;;;7.80;99.90;;;;;;2080683;28;20021;-78
2021/03/15 01:22:18;;;;;;;12.02;7.18;;;7.80;99.90;;;;;;2077316;28;20029;-78
2021/03/15 01:23:19;;;;;;;15.93;8.32;;;7.80;99.90;;;;;;2080461;28;20033;-78
2021/03/15 01:24:20;;;;;;;16.60;8.25;;;7.80;99.90;;;;;;2078762;28;20025;-79
2021/03/15 01:25:41;;;;;;;16.38;9.07;;;7.80;99.90;;;;;;2078418;28;20035;-78
2021/03/15 01:26:42;;;;;;;16.88;7.97;;;7.80;99.90;;;;;;2075349;28;20393;-80
2021/03/15 01:27:43;;;;;;;15.85;7.75;;;7.80;99.90;;;;;;2072242;28;20025;-78
2021/03/15 01:28:44;;;;;;;16.52;8.63;;;7.80;99.90;;;;;;2077140;28;20032;-80
2021/03/15 01:29:44;;;;;;;12.10;7.78;;;7.80;99.90;;;;;;2080132;28;20112;-80
2021/03/15 01:30:46;;;;;;;14.07;7.60;;;7.80;99.90;;;;;;2071978;28;20495;-78
2021/03/15 01:31:47;;;;;;;13.80;7.88;;;7.80;99.90;;;;;;2083446;28;20073;-79
2021/03/15 01:32:48;;;;;;;15.85;7.70;;;7.80;99.90;;;;;;2080168;28;20036;-78
2021/03/15 01:33:48;;;;;;;8.63;6.78;;;7.80;99.90;;;;;;2083027;28;20052;-80
2021/03/15 01:34:49;;;;;;;12.82;7.10;;;7.80;99.90;;;;;;2082077;28;20048;-80
2021/03/15 01:35:49;;;;;;;10.55;6.55;;;7.70;99.90;;;;;;2072457;28;20100;-80
2021/03/15 01:36:50;;;;;;;12.15;6.97;;;7.70;99.90;;;;;;2080030;28;20041;-80
2021/03/15 01:37:52;;;;;;;8.55;7.15;;;7.70;99.90;;;;;;2080573;28;20120;-81
2021/03/15 01:38:52;;;;;;;9.52;7.18;;;7.70;99.90;;;;;;2075013;28;20036;-82
2021/03/15 01:39:53;;;;;;;10.90;7.22;;;7.70;99.90;;;;;;2086175;28;20042;-81
2021/03/15 01:40:53;;;;;;;14.00;7.80;;;7.70;99.90;;;;;;2080073;28;20032;-82
2021/03/15 01:41:54;;;;;;;11.40;7.25;;;7.70;99.90;;;;;;2080798;28;20095;-82
2021/03/15 01:42:55;;;;;;;12.52;7.03;;;7.70;99.90;;;;;;2072454;28;20120;-81
2021/03/15 01:43:56;;;;;;;7.97;6.63;;;7.70;99.90;;;;;;2071311;28;20099;-81
2021/03/15 01:44:57;;;;;;;8.18;6.60;;;7.70;99.90;;;;;;2081520;28;20026;-81
2021/03/15 01:45:57;;;;;;;10.48;6.70;;;7.70;99.90;;;;;;2080291;28;20028;-80
2021/03/15 01:46:58;;;;;;;8.45;6.20;;;7.70;99.90;;;;;;2079547;28;20026;-81
2021/03/15 01:48:00;;;;;;;7.03;6.10;;;7.70;99.90;;;;;;2086203;28;20026;-81
2021/03/15 01:49:00;;;;;;;7.88;6.55;;;7.70;99.90;;;;;;2080426;28;20018;-81
2021/03/15 01:50:02;;;;;;;10.63;6.53;;;7.70;99.90;;;;;;2072805;28;20161;-81
2021/03/15 01:51:03;;;;;;;10.38;6.30;;;7.60;99.90;;;;;;2080305;28;20425;-81
2021/03/15 01:52:04;;;;;;;10.88;6.95;;;7.60;99.90;;;;;;2081091;28;20030;-81
2021/03/15 01:53:05;;;;;;;7.57;6.43;;;7.60;99.90;;;;;;2073475;28;20065;-81
2021/03/15 01:54:06;;;;;;;9.23;6.32;;;7.60;99.90;;;;;;2080251;28;20114;-80
2021/03/15 01:55:10;;;;;;;12.85;6.60;;;7.60;99.90;;;;;;2081460;28;20387;-81
2021/03/15 01:56:12;;;;;;;7.55;6.80;;;7.60;99.90;;;;;;2080987;28;20111;-81
2021/03/15 01:57:13;;;;;;;8.95;7.18;;;7.60;99.90;;;;;;2075822;28;20030;-81
2021/03/15 01:58:14;;;;;;;7.22;6.47;;;7.60;99.90;;;;;;2073357;28;20553;-81
2021/03/15 01:59:16;;;;;;;9.98;6.53;;;7.60;99.90;;;;;;2082557;28;20085;-80
2021/03/15 02:00:19;;;;;;;7.88;6.20;;;7.60;99.90;;;;;;2083074;28;20026;-79
2021/03/15 02:01:20;;;;;;;6.82;5.90;;;7.50;99.90;;;;;;2083406;28;20069;-81
2021/03/15 02:02:21;;;;;;;8.07;6.60;;;7.50;99.90;;;;;;2082559;28;20052;-79
2021/03/15 02:03:21;;;;;;;6.38;5.55;;;7.50;99.90;;;;;;2082098;28;20120;-79
2021/03/15 02:04:26;;;;;;;6.45;5.75;;;7.50;99.90;;;;;;2073886;28;20033;-81
2021/03/15 02:05:29;;;;;;;6.57;5.90;;;7.50;99.90;;;;;;2074477;28;20057;-82
2021/03/15 02:06:29;;;;;;;7.15;5.95;;;7.50;99.90;;;;;;2083007;28;20026;-79
2021/03/15 02:07:30;;;;;;;7.85;6.20;;;7.50;99.90;;;;;;2082275;28;20040;-82
2021/03/15 02:08:31;;;;;;;7.28;5.90;;;7.50;99.90;;;;;;2082316;28;20044;-83
2021/03/15 02:09:32;;;;;;;6.50;5.60;;;7.50;99.90;;;;;;2075624;28;20117;-81
2021/03/15 02:10:34;;;;;;;6.38;5.53;;;7.50;99.90;;;;;;2074872;28;20026;-82
2021/03/15 02:11:37;;;;;;;8.07;6.03;;;7.50;99.90;;;;;;2081798;28;20041;-81
2021/03/15 02:12:46;;;;;;;7.05;6.15;;;7.50;99.90;;;;;;2074640;28;20481;-82
2021/03/15 02:14:16;;;;;;;6.60;5.63;;;7.50;99.90;;;;;;2081813;28;20512;-82
2021/03/15 02:15:47;;;;;;;6.57;5.47;;;7.40;99.90;;;;;;2079478;28;20033;-81
2021/03/15 02:17:06;;;;;;;;;;;7.40;99.90;;;;;;2082115;28;20060;-83
2021/03/15 02:18:27;;;;;;;6.13;5.53;;;7.30;99.90;;;;;;2075676;28;20028;-79
2021/03/15 02:19:59;;;;;;;7.20;5.93;;;7.30;99.90;;;;;;2082483;28;20021;-81
2021/03/15 02:21:34;;;;;;;8.27;5.57;;;7.30;99.90;;;;;;2071193;28;20037;-80
2021/03/15 02:22:59;;;;;;;8.50;6.30;;;7.20;99.90;;;;;;2082944;28;20052;-81
2021/03/15 02:24:14;;;;;;;7.22;6.53;;;7.20;99.90;;;;;;2083877;28;20052;-80
2021/03/15 02:25:42;;;;;;;9.52;6.82;;;7.20;99.90;;;;;;2075620;28;20077;-81
2021/03/15 02:27:20;;;;;;;7.25;6.30;;;7.30;99.90;;;;;;2083757;28;20083;-79
2021/03/15 02:28:26;;;;;;;7.97;6.55;;;7.30;99.90;;;;;;2083541;28;20067;-81
2021/03/15 02:30:01;;;;;;;7.80;6.60;;;7.30;99.90;;;;;;2083370;28;20021;-79
2021/03/15 02:31:10;;;;;;;8.70;7.30;;;7.30;99.90;;;;;;2083552;28;20061;-80
2021/03/15 02:32:43;;;;;;;12.20;8.70;;;7.30;99.90;;;;;;2084659;28;20032;-80
2021/03/15 02:33:59;;;;;;;9.43;7.47;;;7.30;99.90;;;;;;2079822;28;20029;-81
2021/03/15 02:35:06;;;;;;;8.30;6.45;;;7.30;99.90;;;;;;2080310;28;20116;-80
2021/03/15 02:36:09;;;;;;;8.75;7.78;;;7.30;99.90;;;;;;2077380;28;20536;-79
2021/03/15 02:37:13;;;;;;;8.57;7.72;;;7.30;99.90;;;;;;2077959;28;20117;-81
2021/03/15 02:38:16;;;;;;;13.13;8.98;;;7.40;99.90;;;;;;2085373;28;20382;-79
2021/03/15 02:39:23;;;;;;;9.30;8.43;;;7.40;99.90;;;;;;2085266;28;20061;-83
2021/03/15 02:40:36;;;;;;;9.93;7.32;;;7.40;99.90;;;;;;2085886;28;20056;-82
2021/03/15 02:41:39;;;;;;;8.73;7.80;;;7.40;99.90;;;;;;2086184;28;20451;-83
2021/03/15 02:42:45;;;;;;;8.57;7.80;;;7.50;99.90;;;;;;2087113;28;20040;-81
2021/03/15 02:43:55;;;;;;;11.07;8.07;;;7.50;99.90;;;;;;2086988;28;20052;-83
2021/03/15 02:44:56;;;;;;;11.50;8.98;;;7.50;99.90;;;;;;2087065;28;20520;-83
2021/03/15 02:46:06;;;;;;;9.55;8.55;;;7.50;99.90;;;;;;2086779;28;20021;-82
2021/03/15 02:47:12;;;;;;;9.65;8.70;;;7.60;99.90;;;;;;2078054;28;20040;-79
2021/03/15 02:48:15;;;;;;;8.80;7.80;;;7.60;99.90;;;;;;2083737;28;20557;-80
2021/03/15 02:49:17;;;;;;;11.07;9.32;;;7.60;99.90;;;;;;2084218;28;20044;-79
2021/03/15 02:50:19;;;;;;;11.88;7.78;;;7.60;99.90;;;;;;2092336;28;20025;-79
2021/03/15 02:51:24;;;;;;;9.18;6.80;;;7.60;99.90;;;;;;2087412;28;20061;-78
2021/03/15 02:52:27;;;;;;;12.25;8.95;;;7.60;99.90;;;;;;2083704;28;20581;-79
2021/03/15 02:53:29;;;;;;;10.77;9.15;;;7.60;99.90;;;;;;2083995;28;20101;-79
2021/03/15 02:54:32;;;;;;;10.32;7.97;;;7.70;99.90;;;;;;2080701;28;20029;-79
2021/03/15 02:55:34;;;;;;;8.73;7.80;;;7.70;99.90;;;;;;2085941;28;20052;-83
2021/03/15 02:56:40;;;;;;;10.70;9.45;;;7.70;99.90;;;;;;2085156;28;20021;-82
2021/03/15 02:57:43;;;;;;;10.15;8.57;;;7.70;99.90;;;;;;2086174;28;20029;-78
2021/03/15 02:58:45;;;;;;;11.73;9.88;;;7.70;99.90;;;;;;2084711;28;20025;-82
2021/03/15 02:59:49;;;;;;;9.48;8.38;;;7.70;99.90;;;;;;2085275;28;20036;-82
2021/03/15 03:00:51;;;;;;;9.95;8.73;;;7.70;99.90;;;;;;2081525;28;20026;-81
2021/03/15 03:01:54;;;;;;;10.73;9.65;;;7.70;99.90;;;;;;2075029;28;20030;-81
2021/03/15 03:02:57;;;;;;;10.90;9.07;;;7.70;99.90;;;;;;2081608;28;20021;-81
2021/03/15 03:03:58;;;;;;;9.98;8.98;;;7.70;99.90;;;;;;2084903;28;20021;-81
2021/03/15 03:05:00;;;;;;;10.98;9.40;;;7.70;99.90;;;;;;2076894;28;20082;-81
2021/03/15 03:06:01;;;;;;;12.88;8.35;;;7.70;99.90;;;;;;2086535;28;20072;-79
2021/03/15 03:07:05;;;;;;;11.65;8.75;;;7.70;99.90;;;;;;2077813;28;20057;-79
2021/03/15 03:08:08;;;;;;;11.88;10.02;;;7.70;99.90;;;;;;2088808;28;20021;-79
2021/03/15 03:09:11;;;;;;;12.43;9.85;;;7.70;99.90;;;;;;2079873;28;20021;-80
2021/03/15 03:10:14;;;;;;;11.20;9.55;;;7.70;99.90;;;;;;2090165;28;20116;-80
2021/03/15 03:11:16;;;;;;;11.07;9.93;;;7.70;99.90;;;;;;2079417;28;20101;-79
2021/03/15 03:12:19;;;;;;;11.23;9.52;;;7.70;99.90;;;;;;2078975;28;20018;-78
2021/03/15 03:13:24;;;;;;;11.68;9.27;;;7.70;99.90;;;;;;2085926;28;20021;-79
2021/03/15 03:14:27;;;;;;;10.30;9.30;;;7.70;99.90;;;;;;2088307;28;20029;-83
2021/03/15 03:15:31;;;;;;;11.50;9.55;;;7.70;99.90;;;;;;2091006;28;20042;-79
2021/03/15 03:16:37;;;;;;;12.88;9.30;;;7.70;99.90;;;;;;2090607;28;20025;-81
2021/03/15 03:17:40;;;;;;;10.43;9.32;;;7.70;99.90;;;;;;2076449;28;20080;-79
2021/03/15 03:18:42;;;;;;;12.30;9.15;;;7.70;99.90;;;;;;2074135;28;20209;-81
2021/03/15 03:19:47;;;;;;;11.93;9.60;;;7.70;99.90;;;;;;2074459;28;20030;-82
2021/03/15 03:20:55;;;;;;;12.70;9.82;;;7.70;99.90;;;;;;2074732;28;20068;-79
2021/03/15 03:21:56;;;;;;;13.20;9.48;;;7.80;99.90;;;;;;2075384;28;20022;-79
2021/03/15 03:23:01;;;;;;;10.55;9.48;;;7.80;99.90;;;;;;2074435;28;20022;-79
2021/03/15 03:24:03;;;;;;;9.60;7.90;;;7.80;99.90;;;;;;2081812;28;20021;-81
2021/03/15 03:25:06;;;;;;;12.52;9.45;;;7.80;99.90;;;;;;2081545;28;20053;-81
2021/03/15 03:26:07;;;;;;;9.15;8.13;;;7.80;99.90;;;;;;2075360;28;20479;-78
2021/03/15 03:27:08;;;;;;;12.32;10.18;;;7.80;99.90;;;;;;2075304;28;20022;-79
2021/03/15 03:28:10;;;;;;;12.55;9.95;;;7.80;99.90;;;;;;2083750;28;20017;-80
2021/03/15 03:29:13;;;;;;;10.93;9.80;;;7.80;99.90;;;;;;2065730;28;20030;-79
2021/03/15 03:30:15;;;;;;;12.75;10.05;;;7.80;99.90;;;;;;2068714;28;20022;-78
2021/03/15 03:31:17;;;;;;;14.13;9.85;;;7.80;99.90;;;;;;2073531;28;20030;-79
2021/03/15 03:32:18;;;;;;;12.30;10.38;;;7.80;99.90;;;;;;2089090;28;20043;-78
2021/03/15 03:33:20;;;;;;;14.88;10.57;;;7.80;99.90;;;;;;2087462;28;20031;-79
2021/03/15 03:34:21;;;;;;;12.68;9.80;;;7.80;99.90;;;;;;2081885;28;20025;-79
2021/03/15 03:35:22;;;;;;;13.75;9.73;;;7.90;99.90;;;;;;2087414;28;20017;-78
2021/03/15 03:36:23;;;;;;;15.05;10.07;;;7.80;99.90;;;;;;2081802;28;20021;-77
2021/03/15 03:37:24;;;;;;;15.10;10.38;;;7.80;99.90;;;;;;2081352;28;20439;-77
2021/03/15 03:38:24;;;;;;;14.45;10.30;;;7.90;99.90;;;;;;2077543;28;20485;-79
2021/03/15 03:39:25;;;;;;;10.82;9.57;;;7.90;99.90;;;;;;2089945;28;20055;-81
2021/03/15 03:40:26;;;;;;;12.82;9.90;;;7.80;99.90;;;;;;2083291;28;20029;-80
2021/03/15 03:41:27;;;;;;;11.55;10.15;;;7.80;99.90;;;;;;2086314;28;20059;-77
2021/03/15 03:42:29;;;;;;;12.93;10.32;;;7.80;99.90;;;;;;2083390;28;20010;-77
2021/03/15 03:43:29;;;;;;;11.93;10.70;;;7.80;99.90;;;;;;2091614;28;21180;-78
2021/03/15 03:44:30;;;;;;;17.20;11.18;;;7.80;99.90;;;;;;2091764;28;20137;-77
2021/03/15 03:45:31;;;;;;;14.57;9.80;;;7.80;99.90;;;;;;2096358;28;20037;-78
2021/03/15 03:46:32;;;;;;;14.77;10.70;;;7.80;99.90;;;;;;2099492;28;20009;-78
2021/03/15 03:47:33;;;;;;;11.25;10.00;;;7.80;99.90;;;;;;2091327;28;20038;-77
2021/03/15 03:48:36;;;;;;;11.18;9.90;;;7.80;99.90;;;;;;2091997;28;20429;-78
2021/03/15 03:49:37;;;;;;;13.63;10.23;;;7.80;99.90;;;;;;2091544;28;20033;-78
2021/03/15 03:50:39;;;;;;;11.43;9.45;;;7.80;99.90;;;;;;2083015;28;20037;-79
2021/03/15 03:51:46;;;;;;;12.82;9.88;;;7.80;99.90;;;;;;2083677;28;20032;-78
2021/03/15 03:52:54;;;;;;;13.43;9.88;;;7.80;99.90;;;;;;2091515;28;20012;-78
2021/03/15 03:54:11;;;;;;;14.65;10.20;;;7.80;99.90;;;;;;2084382;28;20046;-80
2021/03/15 03:55:15;;;;;;;13.32;10.60;;;7.80;99.90;;;;;;2090950;28;20022;-80
2021/03/15 03:56:34;;;;;;;14.25;10.82;;;7.80;99.90;;;;;;2083036;28;20006;-81
2021/03/15 03:57:38;;;;;;;12.98;9.73;;;7.80;99.90;;;;;;2090491;28;20022;-78
2021/03/15 03:58:51;;;;;;;11.13;9.27;;;7.80;99.90;;;;;;2082376;28;20022;-80
2021/03/15 03:59:53;;;;;;;11.95;9.88;;;7.80;99.90;;;;;;2087075;28;20021;-78
2021/03/15 04:00:56;;;;;;;12.10;10.68;;;7.80;99.90;;;;;;2082249;28;20029;-78
2021/03/15 04:02:01;;;;;;;14.30;10.30;;;7.80;99.90;;;;;;2089706;28;20035;-81
2021/03/15 04:03:13;;;;;;;13.98;10.82;;;7.80;99.90;;;;;;2089409;28;20026;-78
2021/03/15 04:04:19;;;;;;;15.13;10.35;;;7.80;99.90;;;;;;2088920;28;20734;-78
2021/03/15 04:05:24;;;;;;;12.07;10.80;;;7.80;99.90;;;;;;2088575;28;20029;-80
2021/03/15 04:06:29;;;;;;;13.02;10.60;;;7.80;99.90;;;;;;2087499;28;20508;-81
2021/03/15 04:07:32;;;;;;;12.07;9.98;;;7.80;99.90;;;;;;2085667;28;20362;-81
2021/03/15 04:08:46;;;;;;;15.32;10.85;;;7.80;99.90;;;;;;2087937;28;20233;-81
2021/03/15 04:09:51;;;;;;;13.75;11.55;;;7.80;99.90;;;;;;2076429;28;20431;-79
2021/03/15 04:10:52;;;;;;;13.90;11.05;;;7.70;99.90;;;;;;2076498;28;20239;-81
2021/03/15 04:11:57;;;;;;;12.65;11.30;;;7.80;99.90;;;;;;2073399;28;20053;-78
2021/03/15 04:13:05;;;;;;;13.90;11.35;;;7.70;99.90;;;;;;2089472;28;20052;-78
2021/03/15 04:14:07;;;;;;;16.48;11.32;;;7.70;99.90;;;;;;2084759;28;20033;-78
2021/03/15 04:15:08;;;;;;;13.07;11.60;;;7.70;99.90;;;;;;2071434;28;20449;-77
2021/03/15 04:16:12;;;;;;;13.52;11.32;;;7.70;99.90;;;;;;2076571;28;20045;-79
2021/03/15 04:17:19;;;;;;;12.15;10.90;;;7.70;99.90;;;;;;2076863;28;20109;-78
2021/03/15 04:18:24;;;;;;;12.05;10.85;;;7.70;99.90;;;;;;2073845;28;20128;-78
2021/03/15 04:19:30;;;;;;;12.88;10.60;;;7.70;99.90;;;;;;2081833;28;20022;-77
2021/03/15 04:20:40;;;;;;;14.07;11.35;;;7.70;99.90;;;;;;2078398;28;20076;-77
2021/03/15 04:21:43;;;;;;;13.25;10.70;;;7.70;99.90;;;;;;2074437;28;20040;-78
2021/03/15 04:22:49;;;;;;;12.45;11.18;;;7.60;99.90;;;;;;2091184;28;20428;-79
2021/03/15 04:23:52;;;;;;;13.00;11.25;;;7.60;99.90;;;;;;2086999;28;20080;-78
2021/03/15 04:24:54;;;;;;;13.13;11.02;;;7.60;99.90;;;;;;2070536;28;20426;-79
2021/03/15 04:25:57;;;;;;;13.02;10.52;;;7.60;99.90;;;;;;2074070;28;20044;-77
2021/03/15 04:26:59;;;;;;;12.00;10.73;;;7.60;99.90;;;;;;2077245;28;20025;-79
2021/03/15 04:28:00;;;;;;;12.32;11.00;;;7.60;99.90;;;;;;2082225;28;20416;-78
2021/03/15 04:29:03;;;;;;;12.48;10.07;;;7.60;99.90;;;;;;2088367;28;20037;-78
2021/03/15 04:30:04;;;;;;;12.32;10.52;;;7.60;99.90;;;;;;2079769;28;20033;-77
2021/03/15 04:31:09;;;;;;;13.52;10.15;;;7.60;99.90;;;;;;2073012;28;20071;-78
2021/03/15 04:32:11;;;;;;;13.02;10.45;;;7.50;99.90;;;;;;2073133;28;20053;-79
2021/03/15 04:33:12;;;;;;;12.20;10.45;;;7.50;99.90;;;;;;2074120;28;20136;-79
2021/03/15 04:34:13;;;;;;;11.68;10.48;;;7.50;99.90;;;;;;2082987;28;20025;-79
2021/03/15 04:35:14;;;;;;;12.15;10.60;;;7.50;99.90;;;;;;2074702;28;20073;-79
2021/03/15 04:36:16;;;;;;;12.63;11.32;;;7.50;99.90;;;;;;2083330;28;20548;-79
2021/03/15 04:37:18;;;;;;;12.95;11.57;;;7.60;99.90;;;;;;2074723;28;20026;-79
2021/03/15 04:38:21;;;;;;;12.82;11.48;;;7.60;99.90;;;;;;2085567;28;20089;-81
2021/03/15 04:39:21;;;;;;;14.32;11.82;;;7.50;99.90;;;;;;2077879;28;20030;-83
2021/03/15 04:40:24;;;;;;;13.40;10.93;;;7.60;99.90;;;;;;2085913;28;20025;-80
2021/03/15 04:41:25;;;;;;;14.32;11.88;;;7.60;99.90;;;;;;2079416;28;20025;-81
2021/03/15 04:42:26;;;;;;;12.82;10.35;;;7.60;99.90;;;;;;2090684;28;20112;-81
2021/03/15 04:43:27;;;;;;;13.07;10.85;;;7.60;99.90;;;;;;2084176;28;20033;-84
2021/03/15 04:44:28;;;;;;;13.13;10.93;;;7.60;99.90;;;;;;2081573;28;20028;-81
2021/03/15 04:45:35;;;;;;;12.48;10.77;;;7.60;99.90;;;;;;2089239;28;20041;-80
2021/03/15 04:46:36;;;;;;;8.43;7.25;;;7.60;99.90;;;;;;2088865;28;20028;-81
2021/03/15 04:47:38;;;;;;;7.60;6.90;;;7.60;99.90;;;;;;2088803;28;20029;-81
2021/03/15 04:48:40;;;;;;;6.63;6.03;;;7.60;99.90;;;;;;2064434;28;20092;-81
2021/03/15 04:49:41;;;;;;;6.22;5.63;;;7.60;99.90;;;;;;2072067;28;20033;-81
2021/03/15 04:50:48;;;;;;;4.68;4.28;;;7.60;99.90;;;;;;2080072;28;20029;-82
2021/03/15 04:51:50;;;;;;;5.20;3.85;;;7.50;99.90;;;;;;2074150;28;20030;-81
2021/03/15 04:52:52;;;;;;;4.68;4.03;;;7.50;99.90;;;;;;2083261;28;20544;-82
2021/03/15 04:53:53;;;;;;;6.00;5.15;;;7.50;99.90;;;;;;2081614;28;20064;-81
2021/03/15 04:54:54;;;;;;;5.78;5.10;;;7.50;99.90;;;;;;2082514;28;20075;-82
2021/03/15 04:55:57;;;;;;;5.45;4.43;;;7.50;99.90;;;;;;2081393;28;20077;-81
2021/03/15 04:56:59;;;;;;;5.25;4.60;;;7.40;99.90;;;;;;2079945;28;20029;-80
2021/03/15 04:58:05;;;;;;;5.00;4.43;;;7.40;99.90;;;;;;2081149;28;20071;-79
2021/03/15 04:59:08;;;;;;;4.85;4.00;;;7.40;99.90;;;;;;2083270;28;20070;-79
2021/03/15 05:00:12;;;;;;;3.67;3.38;;;7.40;99.90;;;;;;2083365;28;20120;-79
2021/03/15 05:01:13;;;;;;;3.00;2.80;;;7.40;99.90;;;;;;2078091;28;20107;-79
2021/03/15 05:02:21;;;;;;;3.53;3.13;;;7.40;99.90;;;;;;2076038;28;20026;-80
2021/03/15 05:03:23;;;;;;;3.38;3.08;;;7.30;99.90;;;;;;2084304;28;20034;-79
2021/03/15 05:04:25;;;;;;;3.95;3.58;;;7.30;99.90;;;;;;2078922;28;20018;-79
2021/03/15 05:05:26;;;;;;;4.25;3.85;;;7.30;99.90;;;;;;2074585;28;20034;-79
2021/03/15 05:06:28;;;;;;;3.50;3.30;;;7.30;99.90;;;;;;2084463;28;20059;-79
2021/03/15 05:07:30;;;;;;;3.60;3.30;;;7.20;99.90;;;;;;2074921;28;20026;-79
2021/03/15 05:08:45;;;;;;;4.47;3.65;;;7.30;99.90;;;;;;2075246;28;20029;-79
2021/03/15 05:09:48;;;;;;;3.45;3.25;;;7.30;99.90;;;;;;2083001;28;20505;-79
2021/03/15 05:10:49;;;;;;;3.42;3.13;;;7.20;99.90;;;;;;2082268;28;20069;-80
2021/03/15 05:11:51;;;;;;;4.68;3.10;;;7.20;99.90;;;;;;2083286;28;20099;-79
2021/03/15 05:12:52;;;;;;;4.97;3.72;;;7.20;99.90;;;;;;2091589;28;20021;-79
2021/03/15 05:13:54;;;;;;;3.75;3.35;;;7.20;99.90;;;;;;2090618;28;20026;-82
2021/03/15 05:14:57;;;;;;;6.15;3.92;;;7.20;99.90;;;;;;2080404;28;20026;-78
2021/03/15 05:15:59;;;;;;;4.20;3.80;;;7.20;99.90;;;;;;2078463;28;20032;-81
2021/03/15 05:17:00;;;;;;;5.22;3.47;;;7.20;99.90;;;;;;2066354;28;20026;-80
2021/03/15 05:18:01;;;;;;;3.47;3.17;;;7.20;99.90;;;;;;2072335;28;20418;-80
2021/03/15 05:19:04;;;;;;;5.18;3.90;;;7.20;99.90;;;;;;2080681;28;20041;-80
2021/03/15 05:20:11;;;;;;;4.07;3.75;;;7.20;99.90;;;;;;2081309;28;20350;-81
2021/03/15 05:21:13;;;;;;;3.83;3.53;;;7.20;99.90;;;;;;2082825;28;20061;-79
2021/03/15 05:22:14;;;;;;;4.03;3.67;;;7.20;99.90;;;;;;2086678;28;20053;-80
2021/03/15 05:23:15;;;;;;;6.03;3.90;;;7.30;99.90;;;;;;2086724;28;20041;-78
2021/03/15 05:24:16;;;;;;;4.32;3.92;;;7.30;99.90;;;;;;2085212;28;20398;-77
2021/03/15 05:25:18;;;;;;;4.60;4.20;;;7.30;99.90;;;;;;2083430;28;20018;-78
2021/03/15 05:26:21;;;;;;;4.78;4.18;;;7.30;99.90;;;;;;2075745;28;20057;-78
2021/03/15 05:27:22;;;;;;;4.90;4.50;;;7.30;99.90;;;;;;2089343;28;20044;-77
2021/03/15 05:28:23;;;;;;;4.40;4.00;;;7.30;99.90;;;;;;2089820;28;20022;-78
2021/03/15 05:29:24;;;;;;;4.40;4.05;;;7.30;99.90;;;;;;2090115;28;20024;-77
2021/03/15 05:30:26;;;;;;;4.72;4.20;;;7.30;99.90;;;;;;2089204;28;20018;-78
2021/03/15 05:31:29;;;;;;;5.70;4.20;;;7.30;99.90;;;;;;2089708;28;20010;-78